sensor_id;sensor_type;location;lat;lon;timestamp;temperature;humidity
2729;DHT22;1372;47.956;7.830;2022-11-20T00:01:37;7.60;99.90
2729;DHT22;1372;47.956;7.830;2022-11-20T00:04:06;7.60;99.90
2729;DHT22;1372;47.956;7.830;2022-11-20T00:06:37;7.60;99.90
2729;DHT22;1372;47.956;7.830;2022-11-20T00:09:06;7.60;99.90
2729;DHT22;1372;47.956;7.830;2022-11-20T00:11:35;7.60;99.90
2729;DHT22;1372;47.956;7.830;2022-11-20T00:14:04;7.60;99.90
2729;DHT22;1372;47.956;7.830;2022-11-20T00:16:33;7.50;99.90
2729;DHT22;1372;47.956;7.830;2022-11-20T00:19:02;7.50;99.90
2729;DHT22;1372;47.956;7.830;2022-11-20T00:21:30;7.50;99.90
2729;DHT22;1372;47.956;7.830;2022-11-20T00:24:01;7.60;99.90
2729;DHT22;1372;47.956;7.830;2022-11-20T00:26:29;7.60;99.90
2729;DHT22;1372;47.956;7.830;2022-11-20T00:29:00;7.60;99.90
2729;DHT22;1372;47.956;7.830;2022-11-20T00:31:30;7.60;99.90
2729;DHT22;1372;47.956;7.830;2022-11-20T00:34:00;7.60;99.90
2729;DHT22;1372;47.956;7.830;2022-11-20T00:36:33;7.60;99.90
2729;DHT22;1372;47.956;7.830;2022-11-20T00:39:06;7.60;99.90
2729;DHT22;1372;47.956;7.830;2022-11-20T00:41:34;7.60;99.90
2729;DHT22;1372;47.956;7.830;2022-11-20T00:44:03;7.60;99.90
2729;DHT22;1372;47.956;7.830;2022-11-20T00:46:32;7.70;99.90
2729;DHT22;1372;47.956;7.830;2022-11-20T00:49:01;7.80;99.90
2729;DHT22;1372;47.956;7.830;2022-11-20T00:51:31;7.80;99.90
2729;DHT22;1372;47.956;7.830;2022-11-20T00:54:03;7.80;99.90
2729;DHT22;1372;47.956;7.830;2022-11-20T00:56:33;7.80;99.90
2729;DHT22;1372;47.956;7.830;2022-11-20T00:59:02;7.70;99.90
2729;DHT22;1372;47.956;7.830;2022-11-20T01:01:30;7.70;99.90
2729;DHT22;1372;47.956;7.830;2022-11-20T01:04:00;7.60;99.90
2729;DHT22;1372;47.956;7.830;2022-11-20T01:06:30;7.50;99.90
2729;DHT22;1372;47.956;7.830;2022-11-20T01:09:05;7.60;99.90
2729;DHT22;1372;47.956;7.830;2022-11-20T01:11:38;7.60;99.90
2729;DHT22;1372;47.956;7.830;2022-11-20T01:14:10;7.50;99.90
2729;DHT22;1372;47.956;7.830;2022-11-20T01:16:42;7.60;99.90
2729;DHT22;1372;47.956;7.830;2022-11-20T01:19:13;7.60;99.90
2729;DHT22;1372;47.956;7.830;2022-11-20T01:21:46;7.60;99.90
2729;DHT22;1372;47.956;7.830;2022-11-20T01:24:19;7.60;99.90
2729;DHT22;1372;47.956;7.830;2022-11-20T01:26:51;7.60;99.90
2729;DHT22;1372;47.956;7.830;2022-11-20T01:29:21;7.60;99.90
2729;DHT22;1372;47.956;7.830;2022-11-20T01:31:52;7.60;99.90
2729;DHT22;1372;47.956;7.830;2022-11-20T01:34:21;7.60;99.90
2729;DHT22;1372;47.956;7.830;2022-11-20T01:36:51;7.60;99.90
2729;DHT22;1372;47.956;7.830;2022-11-20T01:39:24;7.50;99.90
2729;DHT22;1372;47.956;7.830;2022-11-20T01:41:55;7.50;99.90
2729;DHT22;1372;47.956;7.830;2022-11-20T01:44:54;7.60;99.90
2729;DHT22;1372;47.956;7.830;2022-11-20T01:47:29;7.60;99.90
2729;DHT22;1372;47.956;7.830;2022-11-20T01:50:04;7.50;99.90
2729;DHT22;1372;47.956;7.830;2022-11-20T01:52:38;7.60;99.90
2729;DHT22;1372;47.956;7.830;2022-11-20T01:55:10;7.50;99.90
2729;DHT22;1372;47.956;7.830;2022-11-20T01:57:42;7.50;99.90
2729;DHT22;1372;47.956;7.830;2022-11-20T02:00:14;7.50;99.90
2729;DHT22;1372;47.956;7.830;2022-11-20T02:02:46;7.60;99.90
2729;DHT22;1372;47.956;7.830;2022-11-20T02:05:20;7.50;99.90
2729;DHT22;1372;47.956;7.830;2022-11-20T02:07:52;7.50;99.90
2729;DHT22;1372;47.956;7.830;2022-11-20T02:10:26;7.50;99.90
2729;DHT22;1372;47.956;7.830;2022-11-20T02:12:57;7.50;99.90
2729;DHT22;1372;47.956;7.830;2022-11-20T02:15:51;7.50;99.90
2729;DHT22;1372;47.956;7.830;2022-11-20T02:18:21;7.60;99.90
2729;DHT22;1372;47.956;7.830;2022-11-20T02:20:54;7.50;99.90
2729;DHT22;1372;47.956;7.830;2022-11-20T02:23:31;7.60;99.90
2729;DHT22;1372;47.956;7.830;2022-11-20T02:26:06;7.60;99.90
2729;DHT22;1372;47.956;7.830;2022-11-20T02:28:37;7.60;99.90
2729;DHT22;1372;47.956;7.830;2022-11-20T02:31:06;7.70;99.90
2729;DHT22;1372;47.956;7.830;2022-11-20T02:33:34;7.70;99.90
2729;DHT22;1372;47.956;7.830;2022-11-20T02:36:03;7.70;99.90
2729;DHT22;1372;47.956;7.830;2022-11-20T02:38:33;7.70;99.90
2729;DHT22;1372;47.956;7.830;2022-11-20T02:41:03;7.70;99.90
2729;DHT22;1372;47.956;7.830;2022-11-20T02:43:32;7.70;99.90
2729;DHT22;1372;47.956;7.830;2022-11-20T02:46:00;7.70;99.90
2729;DHT22;1372;47.956;7.830;2022-11-20T02:48:29;7.70;99.90
2729;DHT22;1372;47.956;7.830;2022-11-20T02:51:00;7.70;99.90
2729;DHT22;1372;47.956;7.830;2022-11-20T02:53:28;7.70;99.90
2729;DHT22;1372;47.956;7.830;2022-11-20T02:55:59;7.70;99.90
2729;DHT22;1372;47.956;7.830;2022-11-20T02:58:29;7.70;99.90
2729;DHT22;1372;47.956;7.830;2022-11-20T03:00:58;7.80;99.90
2729;DHT22;1372;47.956;7.830;2022-11-20T03:03:29;7.80;99.90
2729;DHT22;1372;47.956;7.830;2022-11-20T03:06:00;7.80;99.90
2729;DHT22;1372;47.956;7.830;2022-11-20T03:08:28;7.70;99.90
2729;DHT22;1372;47.956;7.830;2022-11-20T03:11:02;7.70;99.90
2729;DHT22;1372;47.956;7.830;2022-11-20T03:13:33;7.70;99.90
2729;DHT22;1372;47.956;7.830;2022-11-20T03:16:08;7.80;99.90
2729;DHT22;1372;47.956;7.830;2022-11-20T03:18:38;7.80;99.90
2729;DHT22;1372;47.956;7.830;2022-11-20T03:21:07;7.80;99.90
2729;DHT22;1372;47.956;7.830;2022-11-20T03:23:37;7.80;99.90
2729;DHT22;1372;47.956;7.830;2022-11-20T03:26:11;7.80;99.90
2729;DHT22;1372;47.956;7.830;2022-11-20T03:28:49;7.90;99.90
2729;DHT22;1372;47.956;7.830;2022-11-20T03:31:20;7.90;99.90
2729;DHT22;1372;47.956;7.830;2022-11-20T03:33:49;7.90;99.90
2729;DHT22;1372;47.956;7.830;2022-11-20T03:36:19;7.90;99.90
2729;DHT22;1372;47.956;7.830;2022-11-20T03:38:48;7.90;99.90
2729;DHT22;1372;47.956;7.830;2022-11-20T03:41:18;7.90;99.90
2729;DHT22;1372;47.956;7.830;2022-11-20T03:43:53;7.90;99.90
2729;DHT22;1372;47.956;7.830;2022-11-20T03:46:23;7.90;99.90
2729;DHT22;1372;47.956;7.830;2022-11-20T03:48:54;7.90;99.90
2729;DHT22;1372;47.956;7.830;2022-11-20T03:51:26;8.00;99.90
2729;DHT22;1372;47.956;7.830;2022-11-20T03:53:57;8.00;99.90
2729;DHT22;1372;47.956;7.830;2022-11-20T03:56:28;7.90;99.90
2729;DHT22;1372;47.956;7.830;2022-11-20T03:59:00;7.90;99.90
2729;DHT22;1372;47.956;7.830;2022-11-20T04:01:31;7.80;99.90
2729;DHT22;1372;47.956;7.830;2022-11-20T04:04:01;7.90;99.90
2729;DHT22;1372;47.956;7.830;2022-11-20T04:06:34;8.00;99.90
2729;DHT22;1372;47.956;7.830;2022-11-20T04:09:05;8.00;99.90
2729;DHT22;1372;47.956;7.830;2022-11-20T04:11:35;7.90;99.90
2729;DHT22;1372;47.956;7.830;2022-11-20T04:14:12;8.10;99.90
2729;DHT22;1372;47.956;7.830;2022-11-20T04:16:42;8.00;99.90
2729;DHT22;1372;47.956;7.830;2022-11-20T04:19:13;8.00;99.90
2729;DHT22;1372;47.956;7.830;2022-11-20T04:21:45;8.10;99.90
2729;DHT22;1372;47.956;7.830;2022-11-20T04:24:14;8.20;99.90
2729;DHT22;1372;47.956;7.830;2022-11-20T04:26:42;8.20;99.90
2729;DHT22;1372;47.956;7.830;2022-11-20T04:29:13;8.20;99.90
2729;DHT22;1372;47.956;7.830;2022-11-20T04:31:41;8.10;99.90
2729;DHT22;1372;47.956;7.830;2022-11-20T04:34:12;8.20;99.90
2729;DHT22;1372;47.956;7.830;2022-11-20T04:36:43;8.10;99.90
2729;DHT22;1372;47.956;7.830;2022-11-20T04:39:14;8.10;99.90
2729;DHT22;1372;47.956;7.830;2022-11-20T04:41:44;8.20;99.90
2729;DHT22;1372;47.956;7.830;2022-11-20T04:44:14;8.20;99.90
2729;DHT22;1372;47.956;7.830;2022-11-20T04:46:44;8.20;99.90
2729;DHT22;1372;47.956;7.830;2022-11-20T04:49:14;8.20;99.90
2729;DHT22;1372;47.956;7.830;2022-11-20T04:51:42;8.10;99.90
2729;DHT22;1372;47.956;7.830;2022-11-20T04:54:11;8.00;99.90
2729;DHT22;1372;47.956;7.830;2022-11-20T04:56:40;8.00;99.90
2729;DHT22;1372;47.956;7.830;2022-11-20T04:59:08;8.00;99.90
2729;DHT22;1372;47.956;7.830;2022-11-20T05:01:38;7.90;99.90
2729;DHT22;1372;47.956;7.830;2022-11-20T05:04:07;7.90;99.90
2729;DHT22;1372;47.956;7.830;2022-11-20T05:06:38;7.90;99.90
2729;DHT22;1372;47.956;7.830;2022-11-20T05:09:07;7.90;99.90
2729;DHT22;1372;47.956;7.830;2022-11-20T05:11:36;8.00;99.90
2729;DHT22;1372;47.956;7.830;2022-11-20T05:14:04;8.00;99.90
2729;DHT22;1372;47.956;7.830;2022-11-20T05:16:34;8.20;99.90
2729;DHT22;1372;47.956;7.830;2022-11-20T05:19:04;8.10;99.90
2729;DHT22;1372;47.956;7.830;2022-11-20T05:21:33;8.10;99.90
2729;DHT22;1372;47.956;7.830;2022-11-20T05:24:01;8.00;99.90
2729;DHT22;1372;47.956;7.830;2022-11-20T05:26:31;7.80;99.90
2729;DHT22;1372;47.956;7.830;2022-11-20T05:29:00;8.00;99.90
2729;DHT22;1372;47.956;7.830;2022-11-20T05:31:29;8.10;99.90
2729;DHT22;1372;47.956;7.830;2022-11-20T05:33:57;8.20;99.90
2729;DHT22;1372;47.956;7.830;2022-11-20T05:36:30;8.00;99.90
2729;DHT22;1372;47.956;7.830;2022-11-20T05:38:58;8.00;99.90
2729;DHT22;1372;47.956;7.830;2022-11-20T05:41:28;8.00;99.90
2729;DHT22;1372;47.956;7.830;2022-11-20T05:43:58;8.10;99.90
2729;DHT22;1372;47.956;7.830;2022-11-20T05:46:27;8.20;99.90
2729;DHT22;1372;47.956;7.830;2022-11-20T05:48:56;8.20;99.90
2729;DHT22;1372;47.956;7.830;2022-11-20T05:51:25;8.20;99.90
2729;DHT22;1372;47.956;7.830;2022-11-20T05:53:57;8.10;99.90
2729;DHT22;1372;47.956;7.830;2022-11-20T05:56:26;8.10;99.90
2729;DHT22;1372;47.956;7.830;2022-11-20T05:58:56;8.00;99.90
2729;DHT22;1372;47.956;7.830;2022-11-20T06:01:25;8.10;99.90
2729;DHT22;1372;47.956;7.830;2022-11-20T06:03:54;8.10;99.90
2729;DHT22;1372;47.956;7.830;2022-11-20T06:06:23;8.10;99.90
2729;DHT22;1372;47.956;7.830;2022-11-20T06:08:52;8.00;99.90
2729;DHT22;1372;47.956;7.830;2022-11-20T06:11:22;8.00;99.90
2729;DHT22;1372;47.956;7.830;2022-11-20T06:13:53;8.10;99.90
2729;DHT22;1372;47.956;7.830;2022-11-20T06:16:21;8.00;99.90
2729;DHT22;1372;47.956;7.830;2022-11-20T06:18:50;8.00;99.90
2729;DHT22;1372;47.956;7.830;2022-11-20T06:21:20;8.10;99.90
2729;DHT22;1372;47.956;7.830;2022-11-20T06:23:51;8.00;99.90
2729;DHT22;1372;47.956;7.830;2022-11-20T06:26:23;8.10;99.90
2729;DHT22;1372;47.956;7.830;2022-11-20T06:28:53;8.20;99.90
2729;DHT22;1372;47.956;7.830;2022-11-20T06:31:24;8.20;99.90
2729;DHT22;1372;47.956;7.830;2022-11-20T06:33:53;8.10;99.90
2729;DHT22;1372;47.956;7.830;2022-11-20T06:36:22;8.10;99.90
2729;DHT22;1372;47.956;7.830;2022-11-20T06:38:53;8.10;99.90
2729;DHT22;1372;47.956;7.830;2022-11-20T06:41:24;8.10;99.90
2729;DHT22;1372;47.956;7.830;2022-11-20T06:43:53;8.00;99.90
2729;DHT22;1372;47.956;7.830;2022-11-20T06:46:22;8.00;99.90
2729;DHT22;1372;47.956;7.830;2022-11-20T06:48:50;7.90;99.90
2729;DHT22;1372;47.956;7.830;2022-11-20T06:51:19;8.00;99.90
2729;DHT22;1372;47.956;7.830;2022-11-20T06:53:48;8.00;99.90
2729;DHT22;1372;47.956;7.830;2022-11-20T06:56:17;7.90;99.90
2729;DHT22;1372;47.956;7.830;2022-11-20T06:58:47;8.00;99.90
2729;DHT22;1372;47.956;7.830;2022-11-20T07:01:15;7.90;99.90
2729;DHT22;1372;47.956;7.830;2022-11-20T07:03:44;7.90;99.90
2729;DHT22;1372;47.956;7.830;2022-11-20T07:06:17;8.00;99.90
2729;DHT22;1372;47.956;7.830;2022-11-20T07:08:46;8.00;99.90
2729;DHT22;1372;47.956;7.830;2022-11-20T07:11:14;8.00;99.90
2729;DHT22;1372;47.956;7.830;2022-11-20T07:13:43;7.90;99.90
2729;DHT22;1372;47.956;7.830;2022-11-20T07:16:13;7.90;99.90
2729;DHT22;1372;47.956;7.830;2022-11-20T07:18:44;8.00;99.90
2729;DHT22;1372;47.956;7.830;2022-11-20T07:21:17;8.10;99.90
2729;DHT22;1372;47.956;7.830;2022-11-20T07:23:46;8.10;99.90
2729;DHT22;1372;47.956;7.830;2022-11-20T07:26:15;8.10;99.90
2729;DHT22;1372;47.956;7.830;2022-11-20T07:28:45;8.10;99.90
2729;DHT22;1372;47.956;7.830;2022-11-20T07:31:15;8.00;99.90
2729;DHT22;1372;47.956;7.830;2022-11-20T07:33:45;8.00;99.90
2729;DHT22;1372;47.956;7.830;2022-11-20T07:36:14;8.00;99.90
2729;DHT22;1372;47.956;7.830;2022-11-20T07:38:43;8.00;99.90
2729;DHT22;1372;47.956;7.830;2022-11-20T07:41:12;8.00;99.90
2729;DHT22;1372;47.956;7.830;2022-11-20T07:43:41;8.10;99.90
2729;DHT22;1372;47.956;7.830;2022-11-20T07:46:12;8.10;99.90
2729;DHT22;1372;47.956;7.830;2022-11-20T07:48:44;8.10;99.90
2729;DHT22;1372;47.956;7.830;2022-11-20T07:51:13;8.20;99.90
2729;DHT22;1372;47.956;7.830;2022-11-20T07:53:42;8.20;99.90
2729;DHT22;1372;47.956;7.830;2022-11-20T07:56:10;8.20;99.90
2729;DHT22;1372;47.956;7.830;2022-11-20T07:58:41;8.20;99.90
2729;DHT22;1372;47.956;7.830;2022-11-20T08:01:09;8.20;99.90
2729;DHT22;1372;47.956;7.830;2022-11-20T08:03:38;8.20;99.90
2729;DHT22;1372;47.956;7.830;2022-11-20T08:06:09;8.10;99.90
2729;DHT22;1372;47.956;7.830;2022-11-20T08:08:37;8.10;99.90
2729;DHT22;1372;47.956;7.830;2022-11-20T08:11:09;8.10;99.90
2729;DHT22;1372;47.956;7.830;2022-11-20T08:13:57;8.00;99.90
2729;DHT22;1372;47.956;7.830;2022-11-20T08:16:42;8.00;99.90
2729;DHT22;1372;47.956;7.830;2022-11-20T08:19:13;7.90;99.90
2729;DHT22;1372;47.956;7.830;2022-11-20T08:21:44;7.90;99.90
2729;DHT22;1372;47.956;7.830;2022-11-20T08:24:13;7.80;99.90
2729;DHT22;1372;47.956;7.830;2022-11-20T08:26:41;7.90;99.90
2729;DHT22;1372;47.956;7.830;2022-11-20T08:29:10;7.90;99.90
2729;DHT22;1372;47.956;7.830;2022-11-20T08:31:39;7.90;99.90
2729;DHT22;1372;47.956;7.830;2022-11-20T08:34:09;7.90;99.90
2729;DHT22;1372;47.956;7.830;2022-11-20T08:36:43;8.00;99.90
2729;DHT22;1372;47.956;7.830;2022-11-20T08:39:15;8.00;99.90
2729;DHT22;1372;47.956;7.830;2022-11-20T08:41:43;8.10;99.90
2729;DHT22;1372;47.956;7.830;2022-11-20T08:44:12;8.10;99.90
2729;DHT22;1372;47.956;7.830;2022-11-20T08:46:42;8.10;99.90
2729;DHT22;1372;47.956;7.830;2022-11-20T08:49:15;8.10;99.90
2729;DHT22;1372;47.956;7.830;2022-11-20T08:51:46;8.10;99.90
2729;DHT22;1372;47.956;7.830;2022-11-20T08:54:18;8.10;99.90
2729;DHT22;1372;47.956;7.830;2022-11-20T08:56:49;8.10;99.90
2729;DHT22;1372;47.956;7.830;2022-11-20T08:59:20;8.20;99.90
2729;DHT22;1372;47.956;7.830;2022-11-20T09:02:09;8.20;99.90
2729;DHT22;1372;47.956;7.830;2022-11-20T09:04:39;8.20;99.90
2729;DHT22;1372;47.956;7.830;2022-11-20T09:07:09;8.20;99.90
2729;DHT22;1372;47.956;7.830;2022-11-20T09:09:41;8.30;99.90
2729;DHT22;1372;47.956;7.830;2022-11-20T09:12:10;8.30;99.90
2729;DHT22;1372;47.956;7.830;2022-11-20T09:14:39;8.30;99.90
2729;DHT22;1372;47.956;7.830;2022-11-20T09:17:09;8.20;99.90
2729;DHT22;1372;47.956;7.830;2022-11-20T09:19:40;8.20;99.90
2729;DHT22;1372;47.956;7.830;2022-11-20T09:22:11;8.20;99.90
2729;DHT22;1372;47.956;7.830;2022-11-20T09:24:40;8.30;99.90
2729;DHT22;1372;47.956;7.830;2022-11-20T09:27:10;8.20;99.90
2729;DHT22;1372;47.956;7.830;2022-11-20T09:29:40;8.30;99.90
2729;DHT22;1372;47.956;7.830;2022-11-20T09:32:08;8.30;99.90
2729;DHT22;1372;47.956;7.830;2022-11-20T09:34:39;8.30;99.90
2729;DHT22;1372;47.956;7.830;2022-11-20T09:37:08;8.30;99.90
2729;DHT22;1372;47.956;7.830;2022-11-20T09:39:38;8.30;99.90
2729;DHT22;1372;47.956;7.830;2022-11-20T09:42:27;8.40;99.90
2729;DHT22;1372;47.956;7.830;2022-11-20T09:45:17;8.40;99.90
2729;DHT22;1372;47.956;7.830;2022-11-20T09:48:04;8.40;99.90
2729;DHT22;1372;47.956;7.830;2022-11-20T09:50:45;8.40;99.90
2729;DHT22;1372;47.956;7.830;2022-11-20T09:53:23;8.50;99.90
2729;DHT22;1372;47.956;7.830;2022-11-20T09:56:01;8.50;99.90
2729;DHT22;1372;47.956;7.830;2022-11-20T09:58:34;8.50;99.90
2729;DHT22;1372;47.956;7.830;2022-11-20T10:01:11;8.60;99.90
2729;DHT22;1372;47.956;7.830;2022-11-20T10:03:50;8.60;99.90
2729;DHT22;1372;47.956;7.830;2022-11-20T10:06:28;8.50;99.90
2729;DHT22;1372;47.956;7.830;2022-11-20T10:09:06;8.50;99.90
2729;DHT22;1372;47.956;7.830;2022-11-20T10:11:55;8.50;99.90
2729;DHT22;1372;47.956;7.830;2022-11-20T10:14:38;8.60;99.90
2729;DHT22;1372;47.956;7.830;2022-11-20T10:17:19;8.60;99.90
2729;DHT22;1372;47.956;7.830;2022-11-20T10:20:02;8.60;99.90
2729;DHT22;1372;47.956;7.830;2022-11-20T10:22:54;8.50;99.90
2729;DHT22;1372;47.956;7.830;2022-11-20T10:25:50;8.40;99.90
2729;DHT22;1372;47.956;7.830;2022-11-20T10:28:34;8.40;99.90
2729;DHT22;1372;47.956;7.830;2022-11-20T10:31:27;8.50;99.90
2729;DHT22;1372;47.956;7.830;2022-11-20T10:34:02;8.50;99.90
2729;DHT22;1372;47.956;7.830;2022-11-20T10:36:42;8.50;99.90
2729;DHT22;1372;47.956;7.830;2022-11-20T10:39:18;8.50;99.90
2729;DHT22;1372;47.956;7.830;2022-11-20T10:41:56;8.50;99.90
2729;DHT22;1372;47.956;7.830;2022-11-20T10:44:29;8.60;99.90
2729;DHT22;1372;47.956;7.830;2022-11-20T10:47:21;8.70;99.90
2729;DHT22;1372;47.956;7.830;2022-11-20T10:49:52;8.70;99.90
2729;DHT22;1372;47.956;7.830;2022-11-20T10:52:28;8.80;99.90
2729;DHT22;1372;47.956;7.830;2022-11-20T10:55:10;8.70;99.90
2729;DHT22;1372;47.956;7.830;2022-11-20T10:57:51;8.80;99.90
2729;DHT22;1372;47.956;7.830;2022-11-20T11:00:25;8.70;99.90
2729;DHT22;1372;47.956;7.830;2022-11-20T11:02:54;8.70;99.90
2729;DHT22;1372;47.956;7.830;2022-11-20T11:05:37;8.70;99.90
2729;DHT22;1372;47.956;7.830;2022-11-20T11:08:15;8.70;99.90
2729;DHT22;1372;47.956;7.830;2022-11-20T11:10:50;8.70;99.90
2729;DHT22;1372;47.956;7.830;2022-11-20T11:13:25;8.70;99.90
2729;DHT22;1372;47.956;7.830;2022-11-20T11:15:56;8.80;99.90
2729;DHT22;1372;47.956;7.830;2022-11-20T11:18:28;8.90;99.90
2729;DHT22;1372;47.956;7.830;2022-11-20T11:21:00;8.90;99.90
2729;DHT22;1372;47.956;7.830;2022-11-20T11:23:32;8.90;99.90
2729;DHT22;1372;47.956;7.830;2022-11-20T11:26:05;8.90;99.90
2729;DHT22;1372;47.956;7.830;2022-11-20T11:28:36;8.90;99.90
2729;DHT22;1372;47.956;7.830;2022-11-20T11:31:06;8.80;99.90
2729;DHT22;1372;47.956;7.830;2022-11-20T11:33:35;8.80;99.90
2729;DHT22;1372;47.956;7.830;2022-11-20T11:36:17;8.80;99.90
2729;DHT22;1372;47.956;7.830;2022-11-20T11:38:51;8.80;99.90
2729;DHT22;1372;47.956;7.830;2022-11-20T11:41:25;8.90;99.90
2729;DHT22;1372;47.956;7.830;2022-11-20T11:44:03;8.90;99.90
2729;DHT22;1372;47.956;7.830;2022-11-20T11:47:04;8.80;99.90
2729;DHT22;1372;47.956;7.830;2022-11-20T11:49:38;8.80;99.90
2729;DHT22;1372;47.956;7.830;2022-11-20T11:52:13;8.80;99.90
2729;DHT22;1372;47.956;7.830;2022-11-20T11:54:48;8.90;99.90
2729;DHT22;1372;47.956;7.830;2022-11-20T11:57:23;8.90;99.90
2729;DHT22;1372;47.956;7.830;2022-11-20T12:00:02;9.00;99.90
2729;DHT22;1372;47.956;7.830;2022-11-20T12:02:37;9.00;99.90
2729;DHT22;1372;47.956;7.830;2022-11-20T12:05:17;9.00;99.90
2729;DHT22;1372;47.956;7.830;2022-11-20T12:07:49;9.10;99.90
2729;DHT22;1372;47.956;7.830;2022-11-20T12:10:22;9.20;99.90
2729;DHT22;1372;47.956;7.830;2022-11-20T12:13:00;9.30;99.90
2729;DHT22;1372;47.956;7.830;2022-11-20T12:15:33;9.30;99.90
2729;DHT22;1372;47.956;7.830;2022-11-20T12:18:08;9.40;99.90
2729;DHT22;1372;47.956;7.830;2022-11-20T12:20:52;9.20;99.90
2729;DHT22;1372;47.956;7.830;2022-11-20T12:23:35;9.10;99.90
2729;DHT22;1372;47.956;7.830;2022-11-20T12:26:18;9.00;99.90
2729;DHT22;1372;47.956;7.830;2022-11-20T12:29:02;9.00;99.90
2729;DHT22;1372;47.956;7.830;2022-11-20T12:32:01;8.90;99.90
2729;DHT22;1372;47.956;7.830;2022-11-20T12:34:46;8.90;99.90
2729;DHT22;1372;47.956;7.830;2022-11-20T12:37:33;8.90;99.90
2729;DHT22;1372;47.956;7.830;2022-11-20T12:40:19;8.90;99.90
2729;DHT22;1372;47.956;7.830;2022-11-20T12:43:04;8.90;99.90
2729;DHT22;1372;47.956;7.830;2022-11-20T12:46:18;8.80;99.90
2729;DHT22;1372;47.956;7.830;2022-11-20T12:49:17;8.90;99.90
2729;DHT22;1372;47.956;7.830;2022-11-20T12:52:04;8.90;99.90
2729;DHT22;1372;47.956;7.830;2022-11-20T12:58:12;8.80;99.90
2729;DHT22;1372;47.956;7.830;2022-11-20T13:00:54;8.90;99.90
2729;DHT22;1372;47.956;7.830;2022-11-20T13:03:42;9.00;99.90
2729;DHT22;1372;47.956;7.830;2022-11-20T13:06:16;9.00;99.90
2729;DHT22;1372;47.956;7.830;2022-11-20T13:08:53;9.00;99.90
2729;DHT22;1372;47.956;7.830;2022-11-20T13:11:27;9.00;99.90
2729;DHT22;1372;47.956;7.830;2022-11-20T13:14:11;9.00;99.90
2729;DHT22;1372;47.956;7.830;2022-11-20T13:16:50;9.10;99.90
2729;DHT22;1372;47.956;7.830;2022-11-20T13:19:26;9.10;99.90
2729;DHT22;1372;47.956;7.830;2022-11-20T13:21:56;9.20;99.90
2729;DHT22;1372;47.956;7.830;2022-11-20T13:24:33;9.20;99.90
2729;DHT22;1372;47.956;7.830;2022-11-20T13:27:20;9.30;99.90
2729;DHT22;1372;47.956;7.830;2022-11-20T13:30:02;9.40;99.90
2729;DHT22;1372;47.956;7.830;2022-11-20T13:32:49;9.50;99.90
2729;DHT22;1372;47.956;7.830;2022-11-20T13:35:28;9.40;99.90
2729;DHT22;1372;47.956;7.830;2022-11-20T13:38:04;9.50;99.90
2729;DHT22;1372;47.956;7.830;2022-11-20T13:40:38;9.50;99.90
2729;DHT22;1372;47.956;7.830;2022-11-20T13:43:22;9.60;99.90
2729;DHT22;1372;47.956;7.830;2022-11-20T13:45:59;9.70;99.90
2729;DHT22;1372;47.956;7.830;2022-11-20T13:48:34;9.60;99.90
2729;DHT22;1372;47.956;7.830;2022-11-20T13:51:23;9.50;99.90
2729;DHT22;1372;47.956;7.830;2022-11-20T13:57:37;9.60;99.90
2729;DHT22;1372;47.956;7.830;2022-11-20T14:00:12;9.60;99.90
2729;DHT22;1372;47.956;7.830;2022-11-20T14:02:43;9.60;99.90
2729;DHT22;1372;47.956;7.830;2022-11-20T14:05:19;9.50;99.90
2729;DHT22;1372;47.956;7.830;2022-11-20T14:07:51;9.50;99.90
2729;DHT22;1372;47.956;7.830;2022-11-20T14:10:22;9.50;99.90
2729;DHT22;1372;47.956;7.830;2022-11-20T14:13:10;9.40;99.90
2729;DHT22;1372;47.956;7.830;2022-11-20T14:15:39;9.30;99.90
2729;DHT22;1372;47.956;7.830;2022-11-20T14:18:13;9.20;99.90
2729;DHT22;1372;47.956;7.830;2022-11-20T14:20:46;9.20;99.90
2729;DHT22;1372;47.956;7.830;2022-11-20T14:23:23;9.30;99.90
2729;DHT22;1372;47.956;7.830;2022-11-20T14:25:56;9.20;99.90
2729;DHT22;1372;47.956;7.830;2022-11-20T14:28:30;9.20;99.90
2729;DHT22;1372;47.956;7.830;2022-11-20T14:30:59;9.10;99.90
2729;DHT22;1372;47.956;7.830;2022-11-20T14:33:37;9.10;99.90
2729;DHT22;1372;47.956;7.830;2022-11-20T14:36:15;9.10;99.90
2729;DHT22;1372;47.956;7.830;2022-11-20T14:38:45;9.20;99.90
2729;DHT22;1372;47.956;7.830;2022-11-20T14:41:18;9.10;99.90
2729;DHT22;1372;47.956;7.830;2022-11-20T14:43:53;9.10;99.90
2729;DHT22;1372;47.956;7.830;2022-11-20T14:46:24;9.10;99.90
2729;DHT22;1372;47.956;7.830;2022-11-20T14:48:55;9.10;99.90
2729;DHT22;1372;47.956;7.830;2022-11-20T14:51:28;9.10;99.90
2729;DHT22;1372;47.956;7.830;2022-11-20T14:54:13;9.10;99.90
2729;DHT22;1372;47.956;7.830;2022-11-20T14:56:53;9.00;99.90
2729;DHT22;1372;47.956;7.830;2022-11-20T14:59:25;8.90;99.90
2729;DHT22;1372;47.956;7.830;2022-11-20T15:01:57;8.80;99.90
2729;DHT22;1372;47.956;7.830;2022-11-20T15:04:27;8.90;99.90
2729;DHT22;1372;47.956;7.830;2022-11-20T15:06:58;8.80;99.90
2729;DHT22;1372;47.956;7.830;2022-11-20T15:09:30;8.80;99.90
2729;DHT22;1372;47.956;7.830;2022-11-20T15:12:01;8.80;99.90
2729;DHT22;1372;47.956;7.830;2022-11-20T15:14:32;8.70;99.90
2729;DHT22;1372;47.956;7.830;2022-11-20T15:17:01;8.70;99.90
2729;DHT22;1372;47.956;7.830;2022-11-20T15:19:30;8.80;99.90
2729;DHT22;1372;47.956;7.830;2022-11-20T15:22:12;8.80;99.90
2729;DHT22;1372;47.956;7.830;2022-11-20T15:24:44;8.70;99.90
2729;DHT22;1372;47.956;7.830;2022-11-20T15:27:14;8.80;99.90
2729;DHT22;1372;47.956;7.830;2022-11-20T15:29:44;8.80;99.90
2729;DHT22;1372;47.956;7.830;2022-11-20T15:32:16;8.80;99.90
2729;DHT22;1372;47.956;7.830;2022-11-20T15:34:45;8.80;99.90
2729;DHT22;1372;47.956;7.830;2022-11-20T15:37:13;8.80;99.90
2729;DHT22;1372;47.956;7.830;2022-11-20T15:39:42;8.80;99.90
2729;DHT22;1372;47.956;7.830;2022-11-20T15:46:08;8.90;99.90
2729;DHT22;1372;47.956;7.830;2022-11-20T15:49:05;8.80;99.90
2729;DHT22;1372;47.956;7.830;2022-11-20T15:51:36;8.70;99.90
2729;DHT22;1372;47.956;7.830;2022-11-20T15:54:10;8.70;99.90
2729;DHT22;1372;47.956;7.830;2022-11-20T15:56:40;8.70;99.90
2729;DHT22;1372;47.956;7.830;2022-11-20T15:59:08;8.70;99.90
2729;DHT22;1372;47.956;7.830;2022-11-20T16:01:39;8.80;99.90
2729;DHT22;1372;47.956;7.830;2022-11-20T16:04:10;8.80;99.90
2729;DHT22;1372;47.956;7.830;2022-11-20T16:06:42;8.70;99.90
2729;DHT22;1372;47.956;7.830;2022-11-20T16:09:17;8.70;99.90
2729;DHT22;1372;47.956;7.830;2022-11-20T16:11:47;8.70;99.90
2729;DHT22;1372;47.956;7.830;2022-11-20T16:24:32;8.70;99.90
2729;DHT22;1372;47.956;7.830;2022-11-20T16:27:01;8.60;99.90
2729;DHT22;1372;47.956;7.830;2022-11-20T16:29:56;8.70;99.90
2729;DHT22;1372;47.956;7.830;2022-11-20T16:33:08;8.70;99.90
2729;DHT22;1372;47.956;7.830;2022-11-20T16:36:17;8.60;99.90
2729;DHT22;1372;47.956;7.830;2022-11-20T16:42:52;8.60;99.90
2729;DHT22;1372;47.956;7.830;2022-11-20T16:45:23;8.50;99.90
2729;DHT22;1372;47.956;7.830;2022-11-20T16:47:58;8.50;99.90
2729;DHT22;1372;47.956;7.830;2022-11-20T16:50:26;8.60;99.90
2729;DHT22;1372;47.956;7.830;2022-11-20T16:53:35;8.70;99.90
2729;DHT22;1372;47.956;7.830;2022-11-20T17:00:50;8.70;99.90
2729;DHT22;1372;47.956;7.830;2022-11-20T17:13:19;8.80;99.90
2729;DHT22;1372;47.956;7.830;2022-11-20T17:20:21;8.80;99.90
2729;DHT22;1372;47.956;7.830;2022-11-20T17:32:27;8.80;99.90
2729;DHT22;1372;47.956;7.830;2022-11-20T17:34:56;8.80;99.90
2729;DHT22;1372;47.956;7.830;2022-11-20T17:59:39;8.80;99.90
2729;DHT22;1372;47.956;7.830;2022-11-20T18:35:39;7.50;99.90
2729;DHT22;1372;47.956;7.830;2022-11-20T18:38:09;7.40;99.90
2729;DHT22;1372;47.956;7.830;2022-11-20T18:40:38;7.50;99.90
2729;DHT22;1372;47.956;7.830;2022-11-20T18:43:09;7.40;99.90
2729;DHT22;1372;47.956;7.830;2022-11-20T18:46:01;7.30;99.90
2729;DHT22;1372;47.956;7.830;2022-11-20T18:48:34;7.20;99.90